Time;durP1;ratioP1;P1;durP2;ratioP2;P2;SDS_P1;SDS_P2;PMS_P1;PMS_P2;Temp;Humidity;BMP_temperature;BMP_pressure;BME280_temperature;BME280_humidity;BME280_pressure;Samples;Min_cycle;Max_cycle;Signal;HPM_P1;HPM_P2
2023/10/23 00:00:04;;;;;;;5.10;3.38;;;;;;;19.54;50.29;101320.63;5091872;28;20054;-68
2023/10/23 00:02:30;;;;;;;5.87;3.77;;;;;;;19.57;50.58;101317.84;5077443;28;20043;-68
2023/10/23 00:04:55;;;;;;;9.93;3.80;;;;;;;19.88;49.59;101308.66;5087322;28;20395;-68
2023/10/23 00:07:21;;;;;;;4.00;2.87;;;;;;;19.48;50.23;101322.59;5096219;28;20049;-68
2023/10/23 00:09:46;;;;;;;4.97;3.27;;;;;;;19.37;50.89;101323.91;5094075;28;20099;-68
2023/10/23 00:12:11;;;;;;;4.63;3.20;;;;;;;19.67;49.61;101327.13;5077048;28;20407;-68
2023/10/23 00:14:37;;;;;;;5.70;3.60;;;;;;;19.17;50.73;101325.56;5107154;28;20144;-68
2023/10/23 00:17:02;;;;;;;6.00;3.77;;;;;;;19.35;50.51;101326.63;5084154;28;20036;-68
2023/10/23 00:19:28;;;;;;;7.87;3.90;;;;;;;19.18;50.74;101323.75;5090020;28;20016;-68
2023/10/23 00:21:53;;;;;;;5.73;3.63;;;;;;;18.99;51.04;101325.31;5095905;28;20035;-68
2023/10/23 00:24:19;;;;;;;6.97;4.00;;;;;;;19.42;49.79;101327.25;5076976;28;20537;-68
2023/10/23 00:26:45;;;;;;;7.47;3.87;;;;;;;19.01;50.70;101333.22;5076234;28;20123;-68
2023/10/23 00:29:10;;;;;;;6.50;3.60;;;;;;;19.01;50.65;101335.88;5079007;28;20110;-68
2023/10/23 00:31:35;;;;;;;4.90;3.63;;;;;;;18.86;50.74;101328.47;5106609;28;20474;-68
2023/10/23 00:34:01;;;;;;;4.67;3.33;;;;;;;18.99;50.26;101332.44;5094284;28;20468;-68
2023/10/23 00:36:26;;;;;;;4.63;3.50;;;;;;;18.59;51.71;101326.75;5075646;28;20034;-68
2023/10/23 00:38:52;;;;;;;6.07;3.70;;;;;;;18.61;51.99;101332.00;5098444;28;20027;-68
2023/10/23 00:41:18;;;;;;;7.90;3.57;;;;;;;18.92;50.62;101329.13;5076026;28;20028;-68
2023/10/23 00:43:43;;;;;;;4.97;3.30;;;;;;;18.72;51.70;101332.47;5077047;28;20035;-68
2023/10/23 00:46:19;;;;;;;7.10;3.57;;;;;;;18.73;51.65;101328.91;5096321;28;20420;-68
2023/10/23 00:48:46;;;;;;;5.37;3.77;;;;;;;18.34;52.46;101331.19;5110645;28;20058;-68
2023/10/23 00:51:12;;;;;;;6.40;3.73;;;;;;;18.45;52.17;101340.50;5083160;28;20048;-68
2023/10/23 00:53:40;;;;;;;6.77;4.00;;;;;;;18.17;52.73;101335.28;5076234;28;20059;-68
2023/10/23 00:56:08;;;;;;;5.87;4.00;;;;;;;18.51;52.19;101338.56;5078844;28;20177;-68
2023/10/23 00:58:38;;;;;;;6.00;3.70;;;;;;;18.34;53.13;101337.38;5112729;28;20023;-68
2023/10/23 01:01:04;;;;;;;6.70;4.30;;;;;;;18.33;52.13;101338.28;5106819;28;20032;-68
2023/10/23 01:03:29;;;;;;;6.97;4.40;;;;;;;18.29;52.62;101348.09;5076895;28;20037;-68
2023/10/23 01:05:55;;;;;;;5.53;3.30;;;;;;;18.35;52.35;101349.66;5075186;28;20024;-68
2023/10/23 01:08:20;;;;;;;10.00;4.43;;;;;;;18.38;52.26;101349.56;5079494;28;20453;-68
2023/10/23 01:10:46;;;;;;;6.13;4.23;;;;;;;18.57;52.39;101343.63;5094857;28;20028;-68
2023/10/23 01:13:12;;;;;;;8.07;4.37;;;;;;;18.45;52.55;101350.19;5075316;28;20039;-68
2023/10/23 01:15:38;;;;;;;5.57;4.30;;;;;;;19.03;51.07;101351.69;5078686;28;20034;-68
2023/10/23 01:18:03;;;;;;;7.37;3.93;;;;;;;18.69;51.51;101348.47;5108164;28;20027;-68
2023/10/23 01:20:30;;;;;;;11.00;4.33;;;;;;;18.98;50.54;101344.78;5077988;28;20031;-68
2023/10/23 01:23:00;;;;;;;7.63;4.03;;;;;;;18.40;52.00;101360.09;5100133;28;20040;-68
2023/10/23 01:25:26;;;;;;;6.73;4.70;;;;;;;18.31;52.55;101356.84;5076051;28;20023;-68
2023/10/23 01:27:53;;;;;;;9.80;5.00;;;;;;;18.18;53.54;101367.91;5102677;28;20035;-68
2023/10/23 01:30:19;;;;;;;6.70;4.43;;;;;;;18.25;52.65;101356.19;5095258;28;20024;-68
2023/10/23 01:32:44;;;;;;;7.13;4.90;;;;;;;18.26;52.96;101357.94;5097813;28;20028;-68
2023/10/23 01:35:10;;;;;;;7.93;4.80;;;;;;;18.50;51.94;101358.84;5080012;28;20260;-68
2023/10/23 01:37:37;;;;;;;9.17;5.13;;;;;;;18.34;52.68;101345.31;5102617;28;20019;-68
2023/10/23 01:40:03;;;;;;;8.27;5.00;;;;;;;18.18;52.00;101346.75;5094588;28;20011;-68
2023/10/23 01:42:30;;;;;;;6.60;4.30;;;;;;;18.00;53.25;101343.78;5081616;28;20040;-68
2023/10/23 01:44:56;;;;;;;9.53;4.23;;;;;;;18.23;51.85;101334.19;5105841;28;20020;-68
2023/10/23 01:47:26;;;;;;;14.80;5.37;;;;;;;18.09;51.70;101340.84;5079682;28;20475;-68
2023/10/23 01:49:52;;;;;;;12.47;5.07;;;;;;;18.02;52.30;101339.28;5098826;28;20032;-68
2023/10/23 01:52:17;;;;;;;7.33;5.20;;;;;;;18.01;52.40;101350.81;5088949;28;20030;-68
2023/10/23 01:54:46;;;;;;;6.73;4.47;;;;;;;17.91;52.50;101349.34;5108603;28;20024;-68
2023/10/23 01:57:12;;;;;;;6.30;4.30;;;;;;;18.43;51.28;101342.31;5092792;28;20108;-68
2023/10/23 01:59:38;;;;;;;8.23;4.30;;;;;;;17.99;52.00;101342.03;5075257;28;20081;-68
2023/10/23 02:02:04;;;;;;;6.67;4.53;;;;;;;17.87;52.72;101342.41;5091565;28;20485;-68
2023/10/23 02:04:31;;;;;;;7.73;4.93;;;;;;;17.79;53.03;101345.28;5093591;28;20051;-68
2023/10/23 02:06:56;;;;;;;7.27;4.77;;;;;;;18.14;52.57;101341.53;5095271;28;20023;-68
2023/10/23 02:09:22;;;;;;;7.27;4.60;;;;;;;18.13;53.29;101341.59;5077723;28;20394;-68
2023/10/23 02:11:48;;;;;;;9.00;5.27;;;;;;;18.17;52.71;101345.00;5074450;28;20023;-68
2023/10/23 02:14:13;;;;;;;7.33;4.87;;;;;;;18.27;52.13;101344.66;5074320;28;20032;-68
2023/10/23 02:16:39;;;;;;;7.10;4.47;;;;;;;18.50;52.69;101352.69;5074027;28;20466;-68
2023/10/23 02:19:04;;;;;;;11.63;5.00;;;;;;;18.21;53.53;101351.91;5074455;28;20106;-68
2023/10/23 02:21:30;;;;;;;6.33;3.77;;;;;;;18.05;53.79;101357.72;5073633;28;20028;-68
2023/10/23 02:23:55;;;;;;;6.90;4.23;;;;;;;18.25;52.97;101359.69;5074020;28;20028;-68
2023/10/23 02:26:21;;;;;;;5.57;3.70;;;;;;;18.21;53.27;101359.84;5076359;28;20031;-68
2023/10/23 02:28:46;;;;;;;5.27;3.73;;;;;;;18.30;52.85;101370.13;5087163;28;20827;-68
2023/10/23 02:31:12;;;;;;;7.57;4.07;;;;;;;18.29;52.47;101365.75;5073858;28;20067;-68
2023/10/23 02:33:37;;;;;;;4.87;3.30;;;;;;;18.06;53.64;101369.16;5092917;28;20026;-68
2023/10/23 02:36:03;;;;;;;5.43;3.63;;;;;;;18.55;51.65;101374.59;5078552;28;20074;-68
2023/10/23 02:38:28;;;;;;;7.13;3.60;;;;;;;18.41;52.33;101365.34;5076880;28;20016;-68
2023/10/23 02:40:54;;;;;;;7.13;4.23;;;;;;;17.98;53.14;101366.75;5094316;28;20024;-68
2023/10/23 02:43:20;;;;;;;6.73;3.40;;;;;;;17.68;54.44;101372.09;5097680;28;20035;-68
2023/10/23 02:45:46;;;;;;;6.83;4.17;;;;;;;18.26;53.38;101363.22;5112876;28;20030;-68
2023/10/23 02:48:12;;;;;;;6.73;3.77;;;;;;;17.83;54.58;101367.22;5103319;28;20400;-68
2023/10/23 02:50:38;;;;;;;6.87;3.20;;;;;;;17.95;54.01;101366.88;5084368;28;20475;-68
2023/10/23 02:53:05;;;;;;;7.93;3.47;;;;;;;17.85;54.55;101370.69;5091368;28;20028;-68
2023/10/23 02:55:31;;;;;;;4.70;3.40;;;;;;;17.88;54.34;101370.59;5082043;28;20027;-68
2023/10/23 02:57:57;;;;;;;3.97;3.23;;;;;;;18.03;54.04;101375.41;5074511;28;20390;-68
2023/10/23 03:00:23;;;;;;;4.07;2.87;;;;;;;17.95;54.65;101372.16;5084404;28;20038;-68
2023/10/23 03:02:49;;;;;;;8.80;3.50;;;;;;;17.97;53.75;101371.19;5094111;28;20031;-68
2023/10/23 03:05:15;;;;;;;5.10;3.33;;;;;;;18.59;51.85;101373.56;5080095;28;20043;-68
2023/10/23 03:07:41;;;;;;;4.87;3.43;;;;;;;18.58;51.81;101377.13;5097095;28;20091;-68
2023/10/23 03:10:06;;;;;;;5.23;3.30;;;;;;;17.95;52.64;101378.28;5073725;28;20467;-68
2023/10/23 03:12:32;;;;;;;7.87;3.57;;;;;;;18.34;51.60;101373.53;5074539;28;20020;-68
2023/10/23 03:14:57;;;;;;;4.67;3.13;;;;;;;18.67;50.51;101392.69;5072682;28;20028;-68
2023/10/23 03:17:23;;;;;;;7.67;3.70;;;;;;;18.70;51.33;101403.16;5094401;28;20031;-68
2023/10/23 03:19:48;;;;;;;4.57;3.33;;;;;;;18.78;51.03;101401.13;5094866;28;20141;-68
2023/10/23 03:22:14;;;;;;;3.30;2.97;;;;;;;17.98;52.38;101403.78;5089340;28;20402;-68
2023/10/23 03:24:41;;;;;;;5.27;3.20;;;;;;;17.39;54.79;101400.28;5093405;28;20471;-68
2023/10/23 03:27:06;;;;;;;9.17;3.47;;;;;;;17.91;54.61;101391.66;5087818;28;20028;-68
2023/10/23 03:29:32;;;;;;;7.67;3.27;;;;;;;17.88;53.75;101391.75;5084951;28;20034;-68
2023/10/23 03:31:57;;;;;;;3.30;2.90;;;;;;;17.75;53.73;101392.13;5110746;28;20030;-68
2023/10/23 03:34:26;;;;;;;4.30;2.93;;;;;;;18.23;52.89;101387.13;5101688;28;20023;-68
2023/10/23 03:36:51;;;;;;;6.10;3.10;;;;;;;18.83;51.70;101387.69;5085128;28;20024;-68
2023/10/23 03:39:17;;;;;;;11.50;3.40;;;;;;;18.40;52.78;101395.34;5075730;28;20016;-68
2023/10/23 03:41:42;;;;;;;3.33;2.60;;;;;;;17.72;53.91;101399.28;5077030;28;20071;-68
2023/10/23 03:44:08;;;;;;;6.70;3.63;;;;;;;17.87;54.40;101400.59;5100841;28;20016;-68
2023/10/23 03:46:33;;;;;;;5.13;3.30;;;;;;;18.32;53.21;101402.69;5072626;28;20030;-68
2023/10/23 03:48:59;;;;;;;9.60;3.70;;;;;;;17.78;55.34;101386.75;5073654;28;20073;-68
2023/10/23 03:51:24;;;;;;;6.47;4.07;;;;;;;18.46;53.64;101389.88;5085607;28;20019;-68
2023/10/23 03:53:49;;;;;;;8.83;4.17;;;;;;;18.06;54.37;101391.19;5072480;28;20479;-68
2023/10/23 03:56:15;;;;;;;8.17;4.43;;;;;;;18.21;54.75;101396.91;5095688;28;20055;-68
2023/10/23 03:58:40;;;;;;;13.60;4.63;;;;;;;17.93;55.07;101398.66;5072969;28;20067;-68
2023/10/23 04:01:06;;;;;;;6.27;4.97;;;;;;;18.69;53.38;101385.53;5091958;28;20115;-68
2023/10/23 04:03:31;;;;;;;6.47;4.63;;;;;;;18.42;54.19;101398.84;5101391;28;20031;-68
2023/10/23 04:05:56;;;;;;;12.77;4.50;;;;;;;18.67;53.76;101403.28;5072208;28;20050;-68
2023/10/23 04:08:22;;;;;;;7.67;4.60;;;;;;;18.57;54.18;101391.25;5076614;28;20141;-68
2023/10/23 04:10:48;;;;;;;11.00;4.90;;;;;;;18.73;54.10;101392.47;5076640;28;20032;-68
2023/10/23 04:13:14;;;;;;;7.43;4.97;;;;;;;18.67;54.55;101391.81;5079541;28;20101;-68
2023/10/23 04:15:40;;;;;;;8.13;4.93;;;;;;;18.84;53.93;101391.22;5080075;28;20031;-68
2023/10/23 04:18:05;;;;;;;14.73;4.90;;;;;;;18.60;54.92;101386.75;5094627;28;20020;-68
2023/10/23 04:20:31;;;;;;;7.60;4.97;;;;;;;18.79;54.48;101389.59;5072660;28;20039;-68
2023/10/23 04:22:56;;;;;;;9.87;5.77;;;;;;;18.93;54.78;101386.50;5084710;28;20028;-68
2023/10/23 04:25:21;;;;;;;10.20;6.00;;;;;;;19.15;53.51;101394.50;5072641;28;20380;-68
2023/10/23 04:27:47;;;;;;;11.33;6.37;;;;;;;19.27;53.52;101390.53;5090728;28;20022;-68
2023/10/23 04:30:13;;;;;;;11.73;6.30;;;;;;;19.92;52.01;101393.38;5071236;28;20122;-68
2023/10/23 04:32:38;;;;;;;20.80;6.67;;;;;;;20.23;50.93;101394.75;5072949;28;20024;-68
2023/10/23 04:35:04;;;;;;;15.33;7.40;;;;;;;19.15;53.54;101388.31;5076644;28;20024;-68
2023/10/23 04:37:29;;;;;;;12.03;6.53;;;;;;;19.29;53.34;101391.34;5092563;28;20051;-68
2023/10/23 04:39:54;;;;;;;14.53;7.40;;;;;;;19.42;53.16;101397.03;5080580;28;20541;-68
2023/10/23 04:42:20;;;;;;;12.87;7.13;;;;;;;19.24;53.87;101387.13;5073435;28;20051;-68
2023/10/23 04:44:48;;;;;;;16.43;7.47;;;;;;;19.68;53.34;101403.13;5073395;28;20057;-68
2023/10/23 04:47:14;;;;;;;16.10;7.73;;;;;;;19.25;54.51;101395.03;5095398;28;20547;-68
2023/10/23 04:49:39;;;;;;;14.83;7.60;;;;;;;19.81;52.49;101388.50;5086321;28;20039;-68
2023/10/23 04:52:05;;;;;;;12.63;6.30;;;;;;;19.66;52.69;101389.94;5073613;28;20387;-68
2023/10/23 04:54:31;;;;;;;12.87;6.20;;;;;;;19.61;53.61;101391.03;5082926;28;20020;-68
2023/10/23 04:56:56;;;;;;;15.03;7.23;;;;;;;19.38;53.89;101390.13;5078010;28;20173;-68
2023/10/23 04:59:21;;;;;;;14.90;7.30;;;;;;;19.96;52.66;101396.75;5078242;28;20020;-68
2023/10/23 05:01:49;;;;;;;14.67;8.00;;;;;;;19.60;53.20;101394.59;5075761;28;20024;-68
2023/10/23 05:04:14;;;;;;;12.30;7.17;;;;;;;19.86;52.93;101395.41;5076684;28;20455;-68
2023/10/23 05:06:39;;;;;;;12.02;6.55;;;;;;;20.36;51.50;101389.81;5078588;28;20022;-68
2023/10/23 05:09:05;;;;;;;19.98;7.75;;;;;;;19.63;53.54;101395.34;5075811;28;20399;-68
2023/10/23 05:11:32;;;;;;;18.13;8.90;;;;;;;20.13;51.99;101396.91;5075455;28;20012;-68
2023/10/23 05:13:57;;;;;;;19.23;9.33;;;;;;;20.24;51.73;101400.94;5085920;28;20020;-68
2023/10/23 05:16:23;;;;;;;18.90;9.00;;;;;;;20.16;51.98;101398.59;5078374;28;20030;-68
2023/10/23 05:18:49;;;;;;;22.40;10.90;;;;;;;20.19;52.14;101397.59;5091521;28;20156;-68
2023/10/23 05:21:14;;;;;;;19.17;9.75;;;;;;;20.34;51.95;101392.50;5093812;28;20019;-68
2023/10/23 05:23:40;;;;;;;21.95;10.63;;;;;;;20.39;52.24;101400.28;5077463;28;20069;-68
2023/10/23 05:26:08;;;;;;;21.35;9.93;;;;;;;19.82;53.90;101389.34;5074763;28;20031;-68
2023/10/23 05:28:33;;;;;;;19.30;8.15;;;;;;;19.83;53.76;101391.06;5077749;28;20032;-68
2023/10/23 05:30:58;;;;;;;19.07;8.47;;;;;;;19.99;53.33;101400.16;5075326;28;20074;-68
2023/10/23 05:33:24;;;;;;;19.37;8.13;;;;;;;20.24;52.23;101395.63;5097543;28;20032;-68
2023/10/23 05:35:59;;;;;;;18.17;8.53;;;;;;;20.15;52.54;101399.50;5082217;28;20031;-68
2023/10/23 05:38:25;;;;;;;20.77;8.75;;;;;;;20.51;51.73;101386.50;5090656;28;20532;-68
2023/10/23 05:40:56;;;;;;;20.33;9.25;;;;;;;20.33;52.05;101392.56;5075909;28;20020;-68
2023/10/23 05:43:21;;;;;;;25.98;10.00;;;;;;;19.72;53.93;101394.13;5078139;28;20124;-67
2023/10/23 05:45:46;;;;;;;24.73;10.90;;;;;;;20.08;53.40;101393.59;5096858;28;20453;-67
2023/10/23 05:48:12;;;;;;;24.85;10.45;;;;;;;20.22;52.76;101386.84;5080576;28;20943;-67
2023/10/23 05:50:37;;;;;;;28.50;11.43;;;;;;;19.86;53.89;101387.44;5080722;28;20409;-67
2023/10/23 05:53:02;;;;;;;28.88;12.07;;;;;;;20.10;53.60;101389.09;5078779;28;20042;-67
2023/10/23 05:55:28;;;;;;;29.40;13.60;;;;;;;20.12;53.58;101387.22;5075015;28;20019;-67
2023/10/23 05:57:54;;;;;;;35.20;13.67;;;;;;;20.03;53.73;101382.31;5077743;28;20114;-67
2023/10/23 06:00:19;;;;;;;31.43;12.80;;;;;;;20.17;53.49;101385.25;5080775;28;20044;-67
2023/10/23 06:02:44;;;;;;;34.50;12.73;;;;;;;20.31;53.00;101397.09;5075068;28;20028;-67
2023/10/23 06:05:10;;;;;;;36.08;13.15;;;;;;;20.44;52.75;101382.38;5075572;28;20027;-67
2023/10/23 06:07:35;;;;;;;32.33;13.10;;;;;;;20.64;51.82;101393.94;5093077;28;20394;-67
2023/10/23 06:10:00;;;;;;;27.27;12.85;;;;;;;20.41;52.73;101398.41;5113109;28;20382;-67
2023/10/23 06:12:26;;;;;;;31.50;12.77;;;;;;;20.24;53.43;101395.63;5095193;28;20475;-67
2023/10/23 06:14:51;;;;;;;33.47;12.70;;;;;;;19.49;55.31;101409.16;5092991;28;20019;-67
2023/10/23 06:17:16;;;;;;;30.60;12.05;;;;;;;19.98;54.79;101405.50;5100568;28;20055;-67
2023/10/23 06:19:42;;;;;;;30.20;12.55;;;;;;;20.08;54.32;101404.19;5100112;28;20026;-68
2023/10/23 06:22:07;;;;;;;38.65;12.45;;;;;;;20.16;53.66;101403.91;5090125;28;20035;-68
2023/10/23 06:24:32;;;;;;;34.25;12.80;;;;;;;20.48;53.02;101393.72;5094816;28;20023;-68
2023/10/23 06:26:58;;;;;;;37.10;14.82;;;;;;;19.98;53.94;101405.50;5092655;28;20559;-68
2023/10/23 06:29:24;;;;;;;33.55;12.13;;;;;;;19.78;54.68;101404.50;5112062;28;20424;-68
2023/10/23 06:31:49;;;;;;;35.60;14.50;;;;;;;19.19;56.77;101400.53;5105946;28;20491;-68
2023/10/23 06:34:15;;;;;;;45.00;14.40;;;;;;;19.75;55.36;101404.59;5064596;28;20375;-67
2023/10/23 06:36:42;;;;;;;35.33;12.45;;;;;;;19.19;57.07;101395.25;5094184;28;20016;-68
2023/10/23 06:39:08;;;;;;;35.10;11.82;;;;;;;19.44;56.58;101396.97;5090862;28;20044;-68
2023/10/23 06:41:33;;;;;;;31.27;11.68;;;;;;;20.08;54.47;101385.63;5101988;28;20070;-67
2023/10/23 06:43:58;;;;;;;40.42;13.63;;;;;;;20.19;54.03;101394.94;5093010;28;20027;-68
2023/10/23 06:46:24;;;;;;;38.83;13.90;;;;;;;19.08;56.75;101393.03;5093310;28;20034;-68
2023/10/23 06:48:49;;;;;;;30.07;12.27;;;;;;;19.12;57.64;101399.94;5100807;28;20530;-67
2023/10/23 06:51:14;;;;;;;35.25;12.10;;;;;;;19.48;56.08;101399.47;5077721;28;20031;-67
2023/10/23 06:53:40;;;;;;;33.87;12.93;;;;;;;19.69;55.47;101401.31;5086946;28;20502;-68
2023/10/23 06:56:07;;;;;;;29.80;12.93;;;;;;;19.37;56.67;101401.66;5103104;28;20469;-68
2023/10/23 06:58:33;;;;;;;30.98;11.73;;;;;;;20.13;54.28;101406.69;5075055;28;20024;-67
2023/10/23 07:01:06;;;;;;;29.48;11.90;;;;;;;19.85;55.38;101404.28;5104850;28;20031;-66
2023/10/23 07:03:31;;;;;;;;;;;;;;;19.90;55.05;101412.91;5089779;28;20422;-67
2023/10/23 07:05:56;;;;;;;32.03;13.30;;;;;;;19.89;55.05;101409.38;5073158;28;19912;-66
2023/10/23 07:08:22;;;;;;;32.85;13.48;;;;;;;20.12;54.56;101413.75;5074205;28;20023;-67
2023/10/23 07:10:47;;;;;;;31.45;12.50;;;;;;;19.75;55.97;101404.59;5077245;28;20051;-67
2023/10/23 07:13:12;;;;;;;28.58;11.02;;;;;;;19.83;56.11;101405.19;5074818;28;20027;-67
2023/10/23 07:15:40;;;;;;;32.83;11.07;;;;;;;19.00;58.79;101400.38;5077089;28;20369;-67
2023/10/23 07:18:05;;;;;;;25.87;10.93;;;;;;;19.35;57.03;101403.50;5095537;28;20474;-67
2023/10/23 07:20:31;;;;;;;27.58;10.50;;;;;;;19.33;57.04;101395.59;5077477;28;20049;-67
2023/10/23 07:22:56;;;;;;;29.50;11.47;;;;;;;19.26;57.64;101395.88;5077381;28;20027;-67
2023/10/23 07:25:22;;;;;;;21.60;11.87;;;;;;;18.76;58.44;101396.78;5092580;28;20031;-67
2023/10/23 07:27:48;;;;;;;28.00;9.70;;;;;;;19.03;58.76;101389.66;5091448;28;20562;-67
2023/10/23 07:30:13;;;;;;;24.58;10.88;;;;;;;19.27;57.19;101394.97;5083111;28;20403;-67
2023/10/23 07:32:39;;;;;;;23.10;10.33;;;;;;;19.29;57.42;101406.38;5093799;28;20031;-66
2023/10/23 07:35:05;;;;;;;23.07;10.77;;;;;;;19.24;56.77;101403.03;5081025;28;20088;-66
2023/10/23 07:37:32;;;;;;;24.77;10.37;;;;;;;19.44;56.00;101403.16;5081230;28;20023;-67
2023/10/23 07:39:58;;;;;;;27.60;9.93;;;;;;;19.64;56.66;101401.50;5077564;28;20546;-66
2023/10/23 07:42:24;;;;;;;22.00;10.43;;;;;;;20.15;54.93;101397.75;5077604;28;20055;-67
2023/10/23 07:44:49;;;;;;;26.10;11.53;;;;;;;20.07;54.95;101405.16;5076497;28;20027;-67
2023/10/23 07:47:15;;;;;;;28.87;11.50;;;;;;;19.18;58.00;101408.56;5075642;28;20012;-66
2023/10/23 07:49:40;;;;;;;24.00;9.87;;;;;;;19.75;56.23;101404.59;5094071;28;20020;-67
2023/10/23 07:52:06;;;;;;;25.37;10.87;;;;;;;20.29;55.04;101405.13;5081710;28;20410;-67
2023/10/23 07:54:31;;;;;;;22.27;10.70;;;;;;;20.15;55.33;101397.75;5105331;28;20051;-66
2023/10/23 07:56:57;;;;;;;25.33;10.43;;;;;;;19.69;55.54;101404.84;5085346;28;20075;-67
2023/10/23 07:59:23;;;;;;;23.77;9.38;;;;;;;20.18;54.62;101396.72;5092515;28;20140;-67
2023/10/23 08:01:49;;;;;;;24.07;10.00;;;;;;;20.02;55.23;101396.50;5105650;28;20034;-67
2023/10/23 08:04:15;;;;;;;24.08;9.73;;;;;;;19.85;55.24;101389.22;5090403;28;20423;-67
2023/10/23 08:06:41;;;;;;;18.30;9.60;;;;;;;19.79;55.65;101387.63;5071803;28;20114;-67
2023/10/23 08:09:06;;;;;;;20.80;9.60;;;;;;;20.09;54.85;101392.66;5072912;28;20169;-67
2023/10/23 08:11:32;;;;;;;21.30;9.57;;;;;;;20.26;54.34;101377.84;5092831;28;20031;-67
2023/10/23 08:13:58;;;;;;;22.20;10.10;;;;;;;19.90;54.24;101375.78;5082764;28;20382;-67
2023/10/23 08:16:23;;;;;;;21.17;8.88;;;;;;;19.92;55.26;101379.22;5104565;28;20557;-67
2023/10/23 08:18:49;;;;;;;18.40;8.82;;;;;;;20.00;55.43;101378.00;5072667;28;20115;-67
2023/10/23 08:21:15;;;;;;;20.00;9.00;;;;;;;19.59;56.63;101379.59;5089525;28;20102;-67
2023/10/23 08:23:42;;;;;;;17.58;8.10;;;;;;;18.54;60.03;101386.09;5072918;28;20040;-67
2023/10/23 08:26:08;;;;;;;14.38;7.85;;;;;;;19.81;56.17;101384.94;5098814;28;20432;-67
2023/10/23 08:28:34;;;;;;;17.13;8.93;;;;;;;20.00;55.00;101387.72;5095579;28;20165;-67
2023/10/23 08:30:59;;;;;;;20.95;9.38;;;;;;;20.09;55.09;101384.72;5087385;28;20143;-67
2023/10/23 08:33:24;;;;;;;19.88;8.60;;;;;;;19.80;55.02;101376.16;5076763;28;20020;-68
2023/10/23 08:35:50;;;;;;;21.00;8.88;;;;;;;20.10;54.76;101383.78;5075116;28;20028;-67
2023/10/23 08:38:15;;;;;;;16.33;7.60;;;;;;;20.30;53.94;101390.03;5103149;28;20035;-68
2023/10/23 08:40:41;;;;;;;21.58;9.48;;;;;;;20.39;53.83;101371.09;5092853;28;20073;-67
2023/10/23 08:43:08;;;;;;;26.70;9.02;;;;;;;20.39;53.60;101376.38;5071701;28;20040;-67
2023/10/23 08:45:33;;;;;;;23.88;10.23;;;;;;;20.24;53.55;101374.41;5076185;28;20433;-67
2023/10/23 08:47:59;;;;;;;21.23;9.45;;;;;;;19.79;54.67;101385.00;5093211;28;20038;-67
2023/10/23 08:50:25;;;;;;;19.83;8.48;;;;;;;19.62;55.33;101387.47;5091673;28;20498;-67
2023/10/23 08:53:00;;;;;;;18.95;8.55;;;;;;;20.22;54.83;101394.81;5093489;28;20505;-67
2023/10/23 08:55:28;;;;;;;24.08;9.32;;;;;;;20.27;54.50;101387.53;5088064;28;20024;-67
2023/10/23 08:57:56;;;;;;;19.45;9.38;;;;;;;20.50;53.57;101387.41;5073814;28;20036;-68
2023/10/23 09:00:24;;;;;;;20.88;8.90;;;;;;;18.68;58.12;101410.28;5073016;28;20027;-68
2023/10/23 09:02:51;;;;;;;13.18;7.43;;;;;;;19.02;57.46;101401.19;5071845;28;20039;-67
2023/10/23 09:05:17;;;;;;;18.23;8.48;;;;;;;19.11;57.32;101398.19;5073672;28;20111;-67
2023/10/23 09:07:42;;;;;;;21.00;8.60;;;;;;;18.95;59.41;101405.81;5072550;28;20175;-67
2023/10/23 09:10:08;;;;;;;19.08;8.30;;;;;;;19.65;56.79;101397.94;5071503;28;20025;-67
2023/10/23 09:12:35;;;;;;;18.00;8.88;;;;;;;19.71;56.10;101396.84;5074809;28;20024;-67
2023/10/23 09:15:24;;;;;;;17.50;8.02;;;;;;;19.58;56.63;101399.13;5072003;28;20026;-67
2023/10/23 09:17:51;;;;;;;20.63;8.93;;;;;;;18.95;59.48;101397.03;5073024;28;20024;-67
2023/10/23 09:20:16;;;;;;;18.63;8.50;;;;;;;19.39;57.64;101402.47;5071930;28;20085;-67
2023/10/23 09:22:46;;;;;;;17.75;8.45;;;;;;;19.50;56.91;101399.41;5071949;28;20119;-67
2023/10/23 09:25:11;;;;;;;19.45;8.73;;;;;;;19.11;58.47;101390.25;5071412;28;20024;-67
2023/10/23 09:27:37;;;;;;;24.02;10.40;;;;;;;19.44;57.43;101397.84;5072367;28;20031;-67
2023/10/23 09:30:03;;;;;;;26.77;11.00;;;;;;;19.00;58.21;101389.78;5073111;28;20582;-67
2023/10/23 09:32:29;;;;;;;19.50;9.45;;;;;;;18.98;58.85;101386.31;5084847;28;20031;-67
2023/10/23 09:34:56;;;;;;;24.35;9.52;;;;;;;20.02;55.81;101388.53;5091834;28;20043;-66
2023/10/23 09:37:24;;;;;;;19.52;8.63;;;;;;;19.75;56.52;101388.69;5089235;28;20016;-66
2023/10/23 09:39:50;;;;;;;21.20;9.77;;;;;;;19.17;57.98;101390.94;5084935;28;20032;-67
2023/10/23 09:42:18;;;;;;;26.30;10.95;;;;;;;19.67;57.25;101390.78;5087248;28;20460;-67
2023/10/23 09:44:45;;;;;;;19.55;8.68;;;;;;;19.18;57.86;101384.72;5092854;28;20032;-67
2023/10/23 09:47:12;;;;;;;23.75;10.60;;;;;;;19.85;56.34;101386.56;5107521;28;20495;-67
2023/10/23 09:49:39;;;;;;;26.05;9.70;;;;;;;19.13;56.88;101380.44;5075064;28;20479;-67
2023/10/23 09:52:07;;;;;;;26.30;10.47;;;;;;;19.39;58.27;101381.25;5091901;28;20020;-67
2023/10/23 09:54:38;;;;;;;26.08;9.68;;;;;;;18.30;60.33;101383.38;5105228;28;20502;-67
2023/10/23 09:57:05;;;;;;;27.60;10.40;;;;;;;19.46;57.31;101381.88;5099074;28;20028;-67
2023/10/23 09:59:48;;;;;;;29.63;11.05;;;;;;;19.54;57.02;101376.28;5093186;28;20027;-67
2023/10/23 10:02:15;;;;;;;36.80;13.02;;;;;;;20.31;55.82;101373.19;5093043;28;20763;-67
2023/10/23 10:04:51;;;;;;;33.33;12.43;;;;;;;19.53;57.32;101377.22;5087372;28;20020;-68
2023/10/23 10:07:26;;;;;;;37.90;13.55;;;;;;;19.84;57.46;101376.91;5078488;28;20608;-67
2023/10/23 10:09:51;;;;;;;36.03;13.35;;;;;;;20.32;55.30;101388.22;5092350;28;20032;-67
2023/10/23 10:12:18;;;;;;;35.13;13.15;;;;;;;20.51;54.74;101374.97;5079062;28;20543;-67
2023/10/23 10:14:46;;;;;;;39.40;14.52;;;;;;;19.68;57.49;101376.59;5081987;28;20028;-67
2023/10/23 10:17:15;;;;;;;35.33;13.98;;;;;;;19.59;58.01;101371.66;5098699;28;20360;-66
2023/10/23 10:19:41;;;;;;;43.05;14.60;;;;;;;19.61;56.60;101369.81;5084688;28;20027;-67
2023/10/23 10:22:33;;;;;;;39.67;16.20;;;;;;;19.59;58.10;101366.34;5093756;28;20027;-67
2023/10/23 10:24:59;;;;;;;37.20;15.57;;;;;;;19.71;57.93;101365.00;5094342;28;20386;-67
2023/10/23 10:27:25;;;;;;;39.47;15.27;;;;;;;20.39;55.36;101360.47;5093997;28;20035;-67
2023/10/23 10:29:51;;;;;;;35.70;14.50;;;;;;;21.14;54.03;101358.06;5092720;28;20023;-67
2023/10/23 10:32:17;;;;;;;43.72;15.52;;;;;;;21.30;53.75;101347.59;5091620;28;20475;-67
2023/10/23 10:34:45;;;;;;;40.83;15.27;;;;;;;20.92;53.58;101339.59;5091734;28;20024;-66
2023/10/23 10:37:11;;;;;;;39.80;13.95;;;;;;;21.00;54.13;101346.28;5073591;28;20028;-67
2023/10/23 10:39:46;;;;;;;36.05;14.27;;;;;;;21.47;52.64;101337.03;5080578;28;20008;-67
2023/10/23 10:42:24;;;;;;;29.75;11.90;;;;;;;21.80;52.52;101335.47;5092928;28;20047;-67
2023/10/23 10:44:56;;;;;;;37.95;13.70;;;;;;;21.87;51.56;101339.56;5112341;28;20432;-67
2023/10/23 10:47:43;;;;;;;29.65;11.48;;;;;;;21.22;52.38;101341.78;5084020;28;20023;-66
2023/10/23 10:50:10;;;;;;;29.25;11.18;;;;;;;22.05;51.14;101331.59;5095355;28;20383;-67
2023/10/23 10:52:36;;;;;;;28.27;11.75;;;;;;;22.16;51.45;101319.47;5073460;28;20533;-67
2023/10/23 10:55:10;;;;;;;26.05;10.55;;;;;;;22.07;51.17;101319.94;5100331;28;20024;-66
2023/10/23 10:57:43;;;;;;;24.52;10.13;;;;;;;21.62;51.07;101308.00;5094032;28;20023;-67
2023/10/23 11:00:09;;;;;;;23.05;11.18;;;;;;;22.24;50.31;101311.06;5105598;28;20024;-67
2023/10/23 11:02:36;;;;;;;23.83;9.50;;;;;;;21.80;51.50;101303.56;5093227;28;20394;-67
2023/10/23 11:05:11;;;;;;;24.17;10.00;;;;;;;21.93;50.76;101301.16;5111307;28;20055;-67
2023/10/23 11:07:37;;;;;;;16.98;9.10;;;;;;;21.92;51.04;101297.63;5093453;28;20541;-67
2023/10/23 11:10:04;;;;;;;15.02;7.55;;;;;;;22.46;49.94;101292.22;5096044;28;20115;-67
2023/10/23 11:12:30;;;;;;;21.52;8.55;;;;;;;22.86;49.09;101295.41;5079670;28;20114;-66